createdAt,value
2018-12-16T00:02:00.264Z,27.70
2018-12-16T00:04:49.846Z,26.87
2018-12-16T00:07:30.393Z,27.20
2018-12-16T00:10:12.654Z,26.33
2018-12-16T00:12:54.568Z,26.83
2018-12-16T00:15:36.828Z,27.90
2018-12-16T00:18:18.752Z,29.40
2018-12-16T00:21:00.727Z,27.20
2018-12-16T00:23:42.548Z,28.17
2018-12-16T00:26:31.201Z,28.60
2018-12-16T00:29:12.790Z,28.70
2018-12-16T00:31:54.779Z,27.53
2018-12-16T00:34:36.644Z,28.53
2018-12-16T00:37:18.881Z,28.87
2018-12-16T00:40:00.829Z,27.47
2018-12-16T00:42:42.878Z,29.43
2018-12-16T00:45:24.885Z,28.40
2018-12-16T00:48:06.659Z,27.80
2018-12-16T00:50:48.619Z,28.37
2018-12-16T00:53:30.717Z,27.77
2018-12-16T00:56:12.615Z,26.73
2018-12-16T00:58:54.527Z,27.03
2018-12-16T01:01:36.828Z,27.30
2018-12-16T01:04:18.898Z,26.33
2018-12-16T01:07:01.088Z,27.73
2018-12-16T01:09:43.269Z,27.40
2018-12-16T01:12:25.323Z,26.93
2018-12-16T01:15:07.874Z,26.30
2018-12-16T01:17:50.674Z,26.87
2018-12-16T01:20:32.553Z,27.70
2018-12-16T01:23:14.666Z,25.93
2018-12-16T01:25:56.850Z,26.13
2018-12-16T01:28:38.818Z,26.17
2018-12-16T01:31:20.913Z,26.17
2018-12-16T01:34:02.867Z,25.33
2018-12-16T01:36:44.840Z,26.03
2018-12-16T01:39:26.894Z,24.67
2018-12-16T01:42:08.844Z,25.80
2018-12-16T01:44:50.710Z,24.43
2018-12-16T01:47:32.785Z,26.07
2018-12-16T01:50:14.883Z,26.53
2018-12-16T01:52:57.023Z,26.47
2018-12-16T01:55:38.917Z,26.73
2018-12-16T01:58:21.408Z,26.87
2018-12-16T02:01:02.999Z,25.77
2018-12-16T02:03:46.046Z,25.13
2018-12-16T02:06:29.153Z,25.43
2018-12-16T02:09:12.070Z,25.37
